createdAt,value
2018-03-06T00:00:49.011Z,60.20
2018-03-06T00:03:16.519Z,52.22
2018-03-06T00:05:44.043Z,52.22
2018-03-06T00:08:11.551Z,50.55
2018-03-06T00:10:39.843Z,49.85
2018-03-06T00:13:07.361Z,51.42
2018-03-06T00:15:34.871Z,53.10
2018-03-06T00:18:02.387Z,48.35
2018-03-06T00:20:29.900Z,51.50
2018-03-06T00:22:57.415Z,47.83
2018-03-06T00:25:25.702Z,51.15
2018-03-06T00:27:53.978Z,54.08
2018-03-06T00:30:22.250Z,55.60
2018-03-06T00:32:50.543Z,48.38
2018-03-06T00:35:18.065Z,49.75
2018-03-06T00:37:46.367Z,57.38
2018-03-06T00:40:14.655Z,62.22
2018-03-06T00:42:42.926Z,55.28
2018-03-06T00:45:11.206Z,53.35
2018-03-06T00:47:38.735Z,53.15
2018-03-06T00:50:06.242Z,51.50
2018-03-06T00:52:33.788Z,55.70
2018-03-06T00:55:01.307Z,54.92
2018-03-06T00:57:28.815Z,57.25
2018-03-06T00:59:56.343Z,52.53
2018-03-06T01:02:24.670Z,52.50
2018-03-06T01:04:52.159Z,56.22
2018-03-06T01:07:19.671Z,55.55
2018-03-06T01:09:47.237Z,54.38
2018-03-06T01:12:14.751Z,56.35
2018-03-06T01:14:43.030Z,65.47
2018-03-06T01:17:11.455Z,65.00
2018-03-06T01:19:38.967Z,55.40
2018-03-06T01:22:07.255Z,59.58
2018-03-06T01:24:35.532Z,56.30
2018-03-06T01:27:03.826Z,54.03
2018-03-06T01:29:31.356Z,64.72
2018-03-06T01:31:59.647Z,60.90
2018-03-06T01:34:27.938Z,67.30
2018-03-06T01:36:55.470Z,61.55
2018-03-06T01:39:23.750Z,61.00
2018-03-06T01:41:52.039Z,61.95
2018-03-06T01:44:20.314Z,62.05
2018-03-06T01:46:48.591Z,64.25
2018-03-06T01:49:16.887Z,59.35
2018-03-06T01:51:56.365Z,61.30
2018-03-06T01:54:23.886Z,62.00
2018-03-06T01:56:51.402Z,66.03
2018-03-06T01:59:18.907Z,63.63
2018-03-06T02:01:46.410Z,64.20
2018-03-06T02:04:13.918Z,66.35
2018-03-06T02:06:41.431Z,66.47
2018-03-06T02:09:08.952Z,62.75
2018-03-06T02:11:36.479Z,61.65
2018-03-06T02:14:03.991Z,69.90
2018-03-06T02:16:31.519Z,68.68
2018-03-06T02:18:59.049Z,63.60
2018-03-06T02:21:27.339Z,69.55
2018-03-06T02:23:54.851Z,59.75
2018-03-06T02:26:22.381Z,65.00
2018-03-06T02:28:49.884Z,59.67
2018-03-06T02:31:17.471Z,62.58
2018-03-06T02:33:45.063Z,56.53
2018-03-06T02:36:12.587Z,70.43
2018-03-06T02:38:40.103Z,69.10
2018-03-06T02:41:07.627Z,64.55
2018-03-06T02:43:35.150Z,63.25
2018-03-06T02:46:12.466Z,55.33
2018-03-06T02:48:39.975Z,61.40
2018-03-06T02:51:07.490Z,59.92
2018-03-06T02:53:35.018Z,65.53
2018-03-06T02:56:03.295Z,69.12
2018-03-06T02:58:31.571Z,67.45
2018-03-06T03:00:59.854Z,66.43
2018-03-06T03:03:28.143Z,65.03
2018-03-06T03:05:55.658Z,59.85
2018-03-06T03:08:23.177Z,63.13
2018-03-06T03:10:50.727Z,74.43
2018-03-06T03:13:18.240Z,68.10
2018-03-06T03:15:45.768Z,67.43
2018-03-06T03:18:13.275Z,75.18
2018-03-06T03:20:41.563Z,73.50
2018-03-06T03:23:09.093Z,81.37
2018-03-06T03:25:38.119Z,77.47
2018-03-06T03:28:05.634Z,73.87
2018-03-06T03:30:33.169Z,75.43
2018-03-06T03:33:00.682Z,73.93
2018-03-06T03:35:28.947Z,72.22
2018-03-06T03:37:56.459Z,65.32
2018-03-06T03:40:23.963Z,72.93
2018-03-06T03:42:51.548Z,71.30
2018-03-06T03:45:19.083Z,76.65
2018-03-06T03:47:47.360Z,81.18
2018-03-06T03:50:15.690Z,85.68
2018-03-06T03:52:43.206Z,83.97
2018-03-06T03:55:11.491Z,86.90
2018-03-06T03:57:39.767Z,75.82
2018-03-06T04:00:08.036Z,88.30
2018-03-06T04:02:36.310Z,75.45
2018-03-06T04:05:04.588Z,81.30
2018-03-06T04:07:32.871Z,79.35
2018-03-06T04:10:01.151Z,83.68
2018-03-06T04:12:28.678Z,93.95
2018-03-06T04:14:56.190Z,87.18
2018-03-06T04:17:23.699Z,86.60
2018-03-06T04:19:51.207Z,96.03
2018-03-06T04:22:18.778Z,88.85
2018-03-06T04:24:46.290Z,86.30
2018-03-06T04:27:14.580Z,78.18
2018-03-06T04:29:42.854Z,85.20
2018-03-06T04:32:11.147Z,100.40
2018-03-06T04:34:38.670Z,85.53
2018-03-06T04:37:06.289Z,85.30
2018-03-06T04:39:33.812Z,89.57
2018-03-06T04:42:01.327Z,87.65
2018-03-06T04:44:28.850Z,91.47
2018-03-06T04:46:56.363Z,91.37
2018-03-06T04:49:23.879Z,94.28
2018-03-06T04:51:51.404Z,94.22
2018-03-06T04:54:19.690Z,86.00
2018-03-06T04:56:47.203Z,84.50
2018-03-06T04:59:14.715Z,93.90
2018-03-06T05:01:42.226Z,93.32
2018-03-06T05:04:09.734Z,90.70
2018-03-06T05:06:37.247Z,100.38
2018-03-06T05:09:04.765Z,97.60
2018-03-06T05:11:32.274Z,104.93
2018-03-06T05:14:00.586Z,103.68
2018-03-06T05:16:28.132Z,105.55
2018-03-06T05:18:55.657Z,97.45
2018-03-06T05:21:23.174Z,98.43
2018-03-06T05:23:50.695Z,105.63
2018-03-06T05:26:18.991Z,98.60
2018-03-06T05:28:46.523Z,105.03
2018-03-06T05:31:14.814Z,111.20
2018-03-06T05:33:43.094Z,97.40
2018-03-06T05:36:10.619Z,110.88
2018-03-06T05:38:38.133Z,101.68
2018-03-06T05:41:05.664Z,102.80
2018-03-06T05:43:33.961Z,106.63
2018-03-06T05:46:01.470Z,96.87
2018-03-06T05:48:29.000Z,111.12
2018-03-06T05:50:56.520Z,106.90
2018-03-06T05:53:24.799Z,104.00
2018-03-06T05:55:53.095Z,105.75
2018-03-06T05:58:20.623Z,116.15
2018-03-06T06:00:48.936Z,109.20
2018-03-06T06:03:16.450Z,107.40
2018-03-06T06:05:44.738Z,105.25
2018-03-06T06:08:13.020Z,101.62
2018-03-06T06:10:41.405Z,103.62
2018-03-06T06:13:09.696Z,106.87
2018-03-06T06:15:37.211Z,114.65
2018-03-06T06:18:04.712Z,110.50
2018-03-06T06:20:32.210Z,104.10
2018-03-06T06:22:59.708Z,107.57
2018-03-06T06:25:27.988Z,104.53
2018-03-06T06:27:55.536Z,110.57
2018-03-06T06:30:23.819Z,97.43
2018-03-06T06:32:52.091Z,93.12
2018-03-06T06:35:19.611Z,89.35
2018-03-06T06:37:47.119Z,92.60
2018-03-06T06:40:15.375Z,93.68
2018-03-06T06:42:42.910Z,89.13
2018-03-06T06:45:10.392Z,82.12
2018-03-06T06:47:37.888Z,94.07
2018-03-06T06:50:05.395Z,81.93
2018-03-06T06:52:32.887Z,83.40
2018-03-06T06:55:01.167Z,82.22
2018-03-06T06:57:29.419Z,70.80
2018-03-06T06:59:56.931Z,82.97
2018-03-06T07:02:24.440Z,79.78
2018-03-06T07:04:51.946Z,78.60
2018-03-06T07:07:19.442Z,83.40
2018-03-06T07:09:46.934Z,76.72
2018-03-06T07:12:15.206Z,75.47
2018-03-06T07:14:43.489Z,76.55
2018-03-06T07:17:11.751Z,76.75
2018-03-06T07:19:39.245Z,82.28
2018-03-06T07:22:06.747Z,79.30
2018-03-06T07:24:34.256Z,75.72
2018-03-06T07:27:01.803Z,77.70
2018-03-06T07:29:30.116Z,84.65
2018-03-06T07:31:57.619Z,70.90
2018-03-06T07:34:25.132Z,77.12
2018-03-06T07:36:52.678Z,82.40
2018-03-06T07:39:20.174Z,81.80
2018-03-06T07:41:47.676Z,80.18
2018-03-06T07:44:15.183Z,80.45
2018-03-06T07:46:42.687Z,80.57
2018-03-06T07:49:10.955Z,79.22
2018-03-06T07:51:39.223Z,75.50
2018-03-06T07:54:06.751Z,80.70
2018-03-06T07:56:34.258Z,77.70
2018-03-06T07:59:02.530Z,75.70
2018-03-06T08:01:30.811Z,79.43
2018-03-06T08:03:59.071Z,77.28
2018-03-06T08:06:27.339Z,77.57
2018-03-06T08:08:54.855Z,72.62
2018-03-06T08:11:22.351Z,76.62
2018-03-06T08:13:49.839Z,71.40
2018-03-06T08:16:18.100Z,67.65
2018-03-06T08:18:46.366Z,77.82
2018-03-06T08:21:13.894Z,67.87
2018-03-06T08:23:41.387Z,65.47
2018-03-06T08:26:08.879Z,70.03
2018-03-06T08:28:36.375Z,66.35
2018-03-06T08:31:03.895Z,63.25
2018-03-06T08:33:31.565Z,64.97
2018-03-06T08:35:59.336Z,65.95
2018-03-06T08:38:26.843Z,68.72
2018-03-06T08:40:54.367Z,62.75
2018-03-06T08:43:21.884Z,62.78
2018-03-06T08:45:50.155Z,63.83
2018-03-06T08:48:18.430Z,67.05
2018-03-06T08:50:46.778Z,58.28
2018-03-06T08:53:14.303Z,60.30
2018-03-06T08:55:41.831Z,61.40
2018-03-06T08:58:09.392Z,51.83
2018-03-06T09:00:37.699Z,55.17
2018-03-06T09:03:05.365Z,53.08
2018-03-06T09:05:32.888Z,49.70
2018-03-06T09:08:10.305Z,46.60
2018-03-06T09:10:37.956Z,51.00
2018-03-06T09:13:05.493Z,49.72
2018-03-06T09:15:33.758Z,50.67
2018-03-06T09:18:01.273Z,51.67
2018-03-06T09:20:28.778Z,47.10
2018-03-06T09:22:56.346Z,48.78
2018-03-06T09:25:24.607Z,45.10
2018-03-06T09:27:53.614Z,46.05
2018-03-06T09:30:21.898Z,42.78
2018-03-06T09:32:50.211Z,47.45
2018-03-06T09:35:17.707Z,45.15
2018-03-06T09:37:45.976Z,44.38
2018-03-06T09:40:13.500Z,46.88
2018-03-06T09:42:41.073Z,46.40
2018-03-06T09:45:08.691Z,50.00
2018-03-06T09:47:36.962Z,48.42
2018-03-06T09:50:05.236Z,42.58
2018-03-06T09:52:33.515Z,46.42
2018-03-06T09:55:01.815Z,44.50
2018-03-06T09:57:29.311Z,44.53
2018-03-06T09:59:56.815Z,46.95
2018-03-06T10:02:25.095Z,44.85
2018-03-06T10:04:53.352Z,40.40
2018-03-06T10:07:20.873Z,40.60
2018-03-06T10:09:48.375Z,44.42
2018-03-06T10:12:16.663Z,40.55
2018-03-06T10:14:44.920Z,42.85
2018-03-06T10:17:12.507Z,37.20
2018-03-06T10:19:40.059Z,40.45
2018-03-06T10:22:08.371Z,39.63
2018-03-06T10:24:35.893Z,41.97
2018-03-06T10:27:04.188Z,37.97
2018-03-06T10:29:31.690Z,40.15
2018-03-06T10:31:59.194Z,37.03
2018-03-06T10:34:26.732Z,39.00
2018-03-06T10:36:55.011Z,36.95
2018-03-06T10:39:23.279Z,41.67
2018-03-06T10:41:50.849Z,37.05
2018-03-06T10:44:19.183Z,41.10
2018-03-06T10:46:46.687Z,37.75
2018-03-06T10:49:14.950Z,35.72
2018-03-06T10:51:42.448Z,34.65
2018-03-06T10:54:09.974Z,37.60
2018-03-06T10:56:38.272Z,37.67
2018-03-06T10:59:05.794Z,35.92
2018-03-06T11:01:33.290Z,35.50
2018-03-06T11:04:00.799Z,38.92
2018-03-06T11:06:28.299Z,38.30
2018-03-06T11:08:56.606Z,34.45
2018-03-06T11:11:24.157Z,40.17
2018-03-06T11:13:51.647Z,39.78
2018-03-06T11:16:19.188Z,39.00
2018-03-06T11:18:46.691Z,39.55
2018-03-06T11:21:14.233Z,41.20
2018-03-06T11:23:41.767Z,41.30
2018-03-06T11:26:09.263Z,44.50
2018-03-06T11:28:36.762Z,37.72
2018-03-06T11:31:04.317Z,43.28
2018-03-06T11:33:31.823Z,39.47
2018-03-06T11:35:59.322Z,41.50
2018-03-06T11:38:27.590Z,43.08
2018-03-06T11:40:55.863Z,44.55
2018-03-06T11:43:24.123Z,47.15
2018-03-06T11:45:51.719Z,41.50
2018-03-06T11:48:19.211Z,40.30
2018-03-06T11:50:46.724Z,40.38
2018-03-06T11:53:14.983Z,42.08
2018-03-06T11:55:42.481Z,43.15
2018-03-06T11:58:09.990Z,46.00
2018-03-06T12:00:37.530Z,44.22
2018-03-06T12:03:05.034Z,48.55
2018-03-06T12:05:33.356Z,45.47
2018-03-06T12:08:00.864Z,45.20
2018-03-06T12:10:29.127Z,44.85
2018-03-06T12:12:56.619Z,43.78
2018-03-06T12:15:24.119Z,42.03
2018-03-06T12:17:51.635Z,45.00
2018-03-06T12:20:19.131Z,46.25
2018-03-06T12:22:46.640Z,46.83
2018-03-06T12:25:14.899Z,45.90
2018-03-06T12:27:43.200Z,47.20
2018-03-06T12:30:10.763Z,48.17
2018-03-06T12:32:38.323Z,48.47
2018-03-06T12:35:05.876Z,46.88
2018-03-06T12:37:34.247Z,48.85
2018-03-06T12:40:02.546Z,51.58
2018-03-06T12:42:30.048Z,46.15
2018-03-06T12:44:57.564Z,52.05
2018-03-06T12:47:25.151Z,49.42
2018-03-06T12:49:52.691Z,49.28
2018-03-06T12:52:20.196Z,49.20
2018-03-06T12:54:48.491Z,49.22
2018-03-06T12:57:16.019Z,48.20
2018-03-06T12:59:43.663Z,52.67
2018-03-06T13:02:11.247Z,49.60
2018-03-06T13:04:38.750Z,52.30
2018-03-06T13:07:06.308Z,50.15
2018-03-06T13:09:33.879Z,53.78
2018-03-06T13:12:01.390Z,57.97
2018-03-06T13:14:28.935Z,59.53
2018-03-06T13:16:56.435Z,55.80
2018-03-06T13:19:24.728Z,50.97
2018-03-06T13:21:52.250Z,57.10
2018-03-06T13:24:20.526Z,58.97
2018-03-06T13:26:48.078Z,53.28
2018-03-06T13:29:15.619Z,51.45
2018-03-06T13:31:43.138Z,56.50
2018-03-06T13:34:10.693Z,57.72
2018-03-06T13:36:38.187Z,53.42
2018-03-06T13:39:05.702Z,55.55
2018-03-06T13:41:33.223Z,50.17
2018-03-06T13:44:00.722Z,53.87
2018-03-06T13:46:28.273Z,52.78
2018-03-06T13:48:56.547Z,50.03
2018-03-06T13:51:24.819Z,47.50
2018-03-06T13:53:53.084Z,53.05
2018-03-06T13:56:20.575Z,55.90
2018-03-06T13:58:48.094Z,53.97
2018-03-06T14:01:15.706Z,57.88
2018-03-06T14:03:43.260Z,51.92
2018-03-06T14:06:10.813Z,57.90
2018-03-06T14:08:38.311Z,51.92
2018-03-06T14:11:05.845Z,51.80
2018-03-06T14:13:33.352Z,49.17
2018-03-06T14:16:00.874Z,54.15
2018-03-06T14:18:28.418Z,56.88
2018-03-06T14:20:55.927Z,56.35
2018-03-06T14:23:23.444Z,57.30
2018-03-06T14:25:50.943Z,56.00
2018-03-06T14:28:18.443Z,56.15
2018-03-06T14:30:45.951Z,55.65
2018-03-06T14:33:13.474Z,59.70
2018-03-06T14:35:40.982Z,54.95
2018-03-06T14:38:08.493Z,60.12
2018-03-06T14:40:35.996Z,59.90
2018-03-06T14:43:05.003Z,60.72
2018-03-06T14:45:33.259Z,61.25
2018-03-06T14:48:00.773Z,57.22
2018-03-06T14:50:28.280Z,61.65
2018-03-06T14:52:55.796Z,59.05
2018-03-06T14:55:23.327Z,63.05
2018-03-06T14:57:51.594Z,55.50
2018-03-06T15:00:19.888Z,54.80
2018-03-06T15:02:47.409Z,57.83
2018-03-06T15:05:14.944Z,52.42
2018-03-06T15:07:42.435Z,57.60
2018-03-06T15:10:09.934Z,56.53
2018-03-06T15:12:37.432Z,54.92
2018-03-06T15:15:04.922Z,55.05
2018-03-06T15:17:33.200Z,54.42
2018-03-06T15:20:01.467Z,58.10
2018-03-06T15:22:29.729Z,64.90
2018-03-06T15:24:57.228Z,57.40
2018-03-06T15:27:24.736Z,59.30
2018-03-06T15:29:52.238Z,62.70
2018-03-06T15:32:19.758Z,54.55
2018-03-06T15:34:47.259Z,64.93
2018-03-06T15:37:14.767Z,84.60
2018-03-06T15:39:42.268Z,75.53
2018-03-06T15:42:10.546Z,62.55
2018-03-06T15:44:38.839Z,70.28
2018-03-06T15:47:06.343Z,59.33
2018-03-06T15:49:33.839Z,64.87
2018-03-06T15:52:02.111Z,56.47
2018-03-06T15:54:30.421Z,56.83
2018-03-06T15:56:58.663Z,58.15
2018-03-06T15:59:26.931Z,55.65
2018-03-06T16:01:55.195Z,60.00
2018-03-06T16:04:22.687Z,58.35
2018-03-06T16:06:50.187Z,60.53
2018-03-06T16:09:17.718Z,61.42
2018-03-06T16:11:45.217Z,58.47
2018-03-06T16:14:12.719Z,57.25
2018-03-06T16:16:40.227Z,58.67
2018-03-06T16:19:07.745Z,56.85
2018-03-06T16:21:35.242Z,60.20
2018-03-06T16:24:02.732Z,61.65
2018-03-06T16:26:30.995Z,63.22
2018-03-06T16:28:58.488Z,58.47
2018-03-06T16:31:26.015Z,64.12
2018-03-06T16:33:53.554Z,61.20
2018-03-06T16:36:21.047Z,56.50
2018-03-06T16:38:49.307Z,58.58
2018-03-06T16:41:16.798Z,66.90
2018-03-06T16:43:44.370Z,66.05
2018-03-06T16:46:11.875Z,61.45
2018-03-06T16:48:39.387Z,60.08
2018-03-06T16:51:06.888Z,69.72
2018-03-06T16:53:34.475Z,79.72
2018-03-06T16:56:02.738Z,84.03
2018-03-06T16:58:31.031Z,88.90
2018-03-06T17:00:59.304Z,78.25
2018-03-06T17:03:27.559Z,84.10
2018-03-06T17:05:55.059Z,79.53
2018-03-06T17:08:22.599Z,74.53
2018-03-06T17:10:50.866Z,67.78
2018-03-06T17:13:19.139Z,62.10
2018-03-06T17:15:46.712Z,63.00
2018-03-06T17:18:14.991Z,63.85
2018-03-06T17:20:43.259Z,66.47
2018-03-06T17:23:11.582Z,56.85
2018-03-06T17:25:39.803Z,58.38
2018-03-06T17:28:07.342Z,60.08
2018-03-06T17:30:34.839Z,58.67
2018-03-06T17:33:03.123Z,57.25
2018-03-06T17:35:30.627Z,66.50
2018-03-06T17:37:58.147Z,68.10
2018-03-06T17:40:25.695Z,65.60
2018-03-06T17:42:53.960Z,67.05
2018-03-06T17:45:22.228Z,64.37
2018-03-06T17:47:50.524Z,53.90
2018-03-06T17:50:18.060Z,61.40
2018-03-06T17:52:45.560Z,66.68
2018-03-06T17:55:13.094Z,73.85
2018-03-06T17:57:41.359Z,64.87
2018-03-06T18:00:09.648Z,67.78
2018-03-06T18:02:37.925Z,70.72
2018-03-06T18:05:05.462Z,65.87
2018-03-06T18:07:32.965Z,69.62
2018-03-06T18:10:00.510Z,66.57
2018-03-06T18:12:28.034Z,60.38
2018-03-06T18:14:55.588Z,72.40
2018-03-06T18:17:23.111Z,72.85
2018-03-06T18:19:50.613Z,68.68
2018-03-06T18:22:18.131Z,71.85
2018-03-06T18:24:45.639Z,87.62
2018-03-06T18:27:13.155Z,71.75
2018-03-06T18:29:40.701Z,71.55
2018-03-06T18:32:08.233Z,70.03
2018-03-06T18:34:35.820Z,71.80
2018-03-06T18:37:03.324Z,72.93
2018-03-06T18:39:30.818Z,70.00
2018-03-06T18:41:58.323Z,65.15
2018-03-06T18:44:25.883Z,76.43
2018-03-06T18:46:53.387Z,72.93
2018-03-06T18:49:21.661Z,67.22
2018-03-06T18:51:49.984Z,78.45
2018-03-06T18:54:17.487Z,79.00
2018-03-06T18:56:45.771Z,79.50
2018-03-06T18:59:14.030Z,77.50
2018-03-06T19:02:14.112Z,99.18
2018-03-06T19:04:53.630Z,148.52
2018-03-06T19:07:21.145Z,238.45
2018-03-06T19:09:48.672Z,306.77
2018-03-06T19:12:16.183Z,328.95
2018-03-06T19:14:44.483Z,288.90
2018-03-06T19:17:11.979Z,169.60
2018-03-06T19:19:39.474Z,104.30
2018-03-06T19:22:07.767Z,105.47
2018-03-06T19:24:35.323Z,91.03
2018-03-06T19:27:02.826Z,86.60
2018-03-06T19:29:30.346Z,79.85
2018-03-06T19:31:57.855Z,74.70
2018-03-06T19:34:26.141Z,70.25
2018-03-06T19:36:54.400Z,76.28
2018-03-06T19:39:21.911Z,73.43
2018-03-06T19:41:49.412Z,83.60
2018-03-06T19:44:16.929Z,80.40
2018-03-06T19:46:44.463Z,105.03
2018-03-06T19:49:12.014Z,88.47
2018-03-06T19:51:39.519Z,92.68
2018-03-06T19:54:07.029Z,92.47
2018-03-06T19:56:34.552Z,116.03
2018-03-06T19:59:02.085Z,130.18
2018-03-06T20:01:29.621Z,132.93
2018-03-06T20:03:57.932Z,120.85
2018-03-06T20:06:25.476Z,126.93
2018-03-06T20:08:53.057Z,128.23
2018-03-06T20:11:20.628Z,162.15
2018-03-06T20:13:48.168Z,114.97
2018-03-06T20:16:15.698Z,108.68
2018-03-06T20:18:44.044Z,95.10
2018-03-06T20:21:11.563Z,95.93
2018-03-06T20:23:39.128Z,110.78
2018-03-06T20:26:06.640Z,103.47
2018-03-06T20:28:34.929Z,104.68
2018-03-06T20:31:09.184Z,97.12
2018-03-06T20:33:36.747Z,98.05
2018-03-06T20:36:04.243Z,88.82
2018-03-06T20:38:37.333Z,94.95
2018-03-06T20:41:04.887Z,98.37
2018-03-06T20:43:33.915Z,94.53
2018-03-06T20:46:07.850Z,92.75
2018-03-06T20:48:35.360Z,96.30
2018-03-06T20:51:02.864Z,110.68
2018-03-06T20:53:36.112Z,96.70
2018-03-06T20:56:03.624Z,83.37
2018-03-06T20:58:31.166Z,95.47
2018-03-06T21:00:58.725Z,79.28
2018-03-06T21:03:26.233Z,89.93
2018-03-06T21:05:53.740Z,79.87
2018-03-06T21:08:21.243Z,77.32
2018-03-06T21:10:48.737Z,85.15
2018-03-06T21:13:17.023Z,113.47
2018-03-06T21:15:45.282Z,106.78
2018-03-06T21:18:13.571Z,78.32
2018-03-06T21:20:41.847Z,79.87
2018-03-06T21:23:10.110Z,83.00
2018-03-06T21:25:37.604Z,85.70
2018-03-06T21:28:05.145Z,82.28
2018-03-06T21:30:32.673Z,75.00
2018-03-06T21:33:00.172Z,74.70
2018-03-06T21:35:27.673Z,74.55
2018-03-06T21:37:55.170Z,72.62
2018-03-06T21:40:23.455Z,73.90
2018-03-06T21:42:51.735Z,73.43
2018-03-06T21:45:19.991Z,80.87
2018-03-06T21:47:48.271Z,82.93
2018-03-06T21:50:16.527Z,105.03
2018-03-06T21:52:44.039Z,87.40
2018-03-06T21:55:11.547Z,87.62
2018-03-06T21:57:39.050Z,287.95
2018-03-06T22:00:06.559Z,111.65
2018-03-06T22:02:34.054Z,353.30
2018-03-06T22:05:02.316Z,379.02
2018-03-06T22:07:30.594Z,187.12
2018-03-06T22:09:58.137Z,382.35
2018-03-06T22:12:25.637Z,173.35
2018-03-06T22:14:53.156Z,214.32
2018-03-06T22:17:20.665Z,181.25
2018-03-06T22:19:48.180Z,128.55
2018-03-06T22:22:15.690Z,136.12
2018-03-06T22:24:43.188Z,131.35
2018-03-06T22:27:10.779Z,268.33
2018-03-06T22:29:39.063Z,96.05
2018-03-06T22:32:06.582Z,90.45
2018-03-06T22:34:34.101Z,348.77
2018-03-06T22:37:01.610Z,124.90
2018-03-06T22:39:29.815Z,85.18
2018-03-06T22:41:57.318Z,134.65
2018-03-06T22:44:24.814Z,142.25
2018-03-06T22:46:53.075Z,97.88
2018-03-06T22:49:20.593Z,114.10
2018-03-06T22:51:48.095Z,127.70
2018-03-06T22:54:16.359Z,160.23
2018-03-06T22:56:43.879Z,101.72
2018-03-06T22:59:11.379Z,96.63
2018-03-06T23:01:38.887Z,91.12
2018-03-06T23:04:06.383Z,93.43
2018-03-06T23:06:33.879Z,99.75
2018-03-06T23:09:02.163Z,80.90
2018-03-06T23:11:29.676Z,92.00
2018-03-06T23:13:57.171Z,81.60
2018-03-06T23:16:25.471Z,74.55
2018-03-06T23:18:52.973Z,79.25
2018-03-06T23:21:21.259Z,72.15
2018-03-06T23:23:48.747Z,76.00
2018-03-06T23:26:16.243Z,74.80
2018-03-06T23:28:43.759Z,77.35
2018-03-06T23:31:12.019Z,79.55
2018-03-06T23:33:40.295Z,75.85
2018-03-06T23:36:07.811Z,73.95
2018-03-06T23:38:35.311Z,71.82
2018-03-06T23:41:03.607Z,79.43
2018-03-06T23:43:31.119Z,80.85
2018-03-06T23:45:58.633Z,113.35
2018-03-06T23:48:26.166Z,90.93
2018-03-06T23:50:54.447Z,89.95
2018-03-06T23:53:22.715Z,91.63
2018-03-06T23:55:50.215Z,113.28
2018-03-06T23:58:17.711Z,138.45
